Terminal Aerodrome Forecast
Issued by NWS

Home | Current Version | Previous Version | Text Only | Print | Product List | Glossary On
Versions: 1 2 3 4 5 6 7 8 9 10 11 12
937
FTUS43 KJKL 292339
TAFSME
TAF
KSME 292339Z 3000/3024 16006KT P6SM FEW200
     FM301300 18010KT P6SM SCT200
     FM301400 19012G21KT P6SM SCT200
     FM301700 19016G30KT P6SM SCT130
     FM302300 18012G21KT P6SM SCT200=

USA.gov is the U.S. government's official web portal to all federal, state and local government web resources and services.